Terminal Aerodrome Forecast
Issued by NWS Paducah, KY

Home | Current Version | Previous Version | Text Only | Print | Product List | Glossary Off
Versions: 1 2 3 4 5 6 7 8 9 10 11 12 13 14 15

000
FTUS43 KPAH 240520
TAFEVV
TAF
KEVV 240520Z 2406/2506 00000KT P6SM SCT300
     FM241400 13007KT P6SM BKN080
     FM250200 14005KT P6SM BKN040=

USA.gov is the U.S. government's official web portal to all federal, state and local government web resources and services.